createdAt,value
2022-11-09T00:01:46.371Z,100378.81
2022-11-09T00:04:14.553Z,100373.53
2022-11-09T00:06:43.703Z,100378.50
2022-11-09T00:09:11.746Z,100376.56
2022-11-09T00:11:40.680Z,100380.72
2022-11-09T00:14:15.060Z,100378.16
2022-11-09T00:16:43.062Z,100374.88
2022-11-09T00:19:11.064Z,100369.09
2022-11-09T00:21:44.677Z,100367.62
2022-11-09T00:24:13.508Z,100365.06
2022-11-09T00:26:53.004Z,100367.94
2022-11-09T00:29:46.725Z,100371.97
2022-11-09T00:36:51.464Z,100372.34
2022-11-09T01:10:51.362Z,100364.59
2022-11-09T01:13:31.783Z,100353.69
2022-11-09T01:15:59.507Z,100356.66
2022-11-09T01:18:28.145Z,100347.06
2022-11-09T01:20:58.258Z,100350.94
2022-11-09T01:23:27.090Z,100350.09
2022-11-09T01:25:59.895Z,100348.13
2022-11-09T01:28:28.481Z,100348.84
2022-11-09T01:31:02.395Z,100341.94
2022-11-09T01:33:33.873Z,100347.75
2022-11-09T01:36:05.681Z,100341.13
2022-11-09T01:38:33.543Z,100343.47
2022-11-09T01:41:03.283Z,100342.31
2022-11-09T01:43:31.300Z,100339.88
2022-11-09T01:46:09.739Z,100330.16
2022-11-09T01:48:46.173Z,100332.41
2022-11-09T01:51:18.694Z,100321.06
2022-11-09T01:53:50.300Z,100320.00
2022-11-09T01:56:19.027Z,100324.31
2022-11-09T01:58:54.033Z,100320.62
2022-11-09T02:01:22.516Z,100326.44
2022-11-09T02:04:00.326Z,100326.78
2022-11-09T02:06:31.312Z,100322.25
2022-11-09T02:09:14.060Z,100316.72
2022-11-09T02:11:41.813Z,100318.13
2022-11-09T02:14:09.917Z,100317.94
2022-11-09T02:16:39.167Z,100314.31
2022-11-09T02:19:06.835Z,100320.41
2022-11-09T02:21:35.898Z,100321.44
2022-11-09T02:24:03.974Z,100312.19
2022-11-09T02:26:36.850Z,100315.00
2022-11-09T02:29:08.540Z,100314.78
2022-11-09T02:31:39.793Z,100306.50
2022-11-09T02:34:16.731Z,100308.03
2022-11-09T02:36:44.921Z,100310.72
2022-11-09T02:39:20.041Z,100308.56
2022-11-09T02:41:57.718Z,100306.16
2022-11-09T02:44:29.936Z,100309.31
2022-11-09T02:46:57.554Z,100314.59
2022-11-09T02:49:26.880Z,100302.03
2022-11-09T02:51:54.632Z,100304.59
2022-11-09T02:54:22.659Z,100301.44
2022-11-09T02:56:50.479Z,100282.16
2022-11-09T02:59:18.244Z,100284.75
2022-11-09T03:01:45.890Z,100294.66
2022-11-09T03:04:13.936Z,100301.53
2022-11-09T03:06:42.419Z,100302.06
2022-11-09T03:09:12.284Z,100306.31
2022-11-09T03:11:41.704Z,100307.94
2022-11-09T03:14:11.505Z,100313.00
2022-11-09T03:16:40.753Z,100314.66
2022-11-09T03:19:08.797Z,100308.47
2022-11-09T03:21:37.622Z,100311.50
2022-11-09T03:24:06.405Z,100310.75
2022-11-09T03:26:38.644Z,100323.72
2022-11-09T03:29:07.218Z,100322.66
2022-11-09T03:31:39.859Z,100314.34
2022-11-09T03:34:09.141Z,100310.50
2022-11-09T03:36:45.830Z,100315.34
2022-11-09T03:39:29.169Z,100313.22
2022-11-09T03:42:15.255Z,100315.88
2022-11-09T03:44:55.345Z,100313.97
2022-11-09T03:47:27.195Z,100318.22
2022-11-09T03:49:55.401Z,100315.44
2022-11-09T03:52:23.760Z,100306.31
2022-11-09T03:54:51.396Z,100306.06
2022-11-09T03:57:20.748Z,100303.78
2022-11-09T03:59:50.279Z,100303.81
2022-11-09T04:02:17.932Z,100298.66
2022-11-09T04:04:46.935Z,100300.88
2022-11-09T04:07:15.270Z,100308.00
2022-11-09T04:09:43.339Z,100305.41
2022-11-09T04:12:11.332Z,100304.44
2022-11-09T04:14:39.137Z,100305.63
2022-11-09T04:17:06.605Z,100302.00
2022-11-09T04:19:34.880Z,100303.59
2022-11-09T04:22:06.869Z,100303.50
2022-11-09T04:24:34.997Z,100303.56
2022-11-09T04:27:03.984Z,100294.03
2022-11-09T04:29:32.102Z,100298.50
2022-11-09T04:32:00.509Z,100304.03
2022-11-09T04:34:28.677Z,100293.91
2022-11-09T04:37:00.934Z,100301.66
2022-11-09T04:39:29.141Z,100297.34
2022-11-09T04:41:57.297Z,100300.41
2022-11-09T04:48:03.355Z,100288.63
2022-11-09T04:50:32.765Z,100301.97
2022-11-09T04:53:11.481Z,100303.06
2022-11-09T04:55:40.716Z,100296.84
2022-11-09T04:58:09.978Z,100296.22
2022-11-09T05:00:41.038Z,100294.31
2022-11-09T05:03:12.867Z,100295.81
2022-11-09T05:05:47.156Z,100286.50
2022-11-09T05:08:17.274Z,100286.78
2022-11-09T05:10:45.862Z,100290.25
2022-11-09T05:13:15.060Z,100294.72
2022-11-09T05:15:44.047Z,100294.72
2022-11-09T05:18:16.944Z,100285.75
2022-11-09T05:20:47.076Z,100280.09
2022-11-09T05:23:34.000Z,100278.28
2022-11-09T05:26:01.989Z,100276.25
2022-11-09T05:28:31.067Z,100280.75
2022-11-09T05:31:03.185Z,100282.97
2022-11-09T05:33:34.001Z,100292.38
2022-11-09T05:36:04.871Z,100298.50
2022-11-09T05:38:33.641Z,100294.91
2022-11-09T05:41:05.070Z,100294.44
2022-11-09T05:43:38.969Z,100291.41
2022-11-09T05:46:07.850Z,100303.22
2022-11-09T05:48:37.487Z,100293.69
2022-11-09T05:51:06.957Z,100294.66
2022-11-09T05:53:35.239Z,100305.22
2022-11-09T05:56:07.962Z,100305.37
2022-11-09T05:58:41.557Z,100305.47
2022-11-09T06:01:15.918Z,100304.09
2022-11-09T06:04:01.488Z,100303.84
2022-11-09T06:06:46.999Z,100311.78
2022-11-09T06:09:15.569Z,100304.13
2022-11-09T06:12:15.898Z,100304.53
2022-11-09T06:15:39.964Z,100305.06
2022-11-09T06:18:39.622Z,100304.16
2022-11-09T06:21:11.284Z,100314.25
2022-11-09T06:23:39.256Z,100309.66
2022-11-09T06:26:11.176Z,100326.31
2022-11-09T06:37:13.854Z,100328.53
2022-11-09T06:39:45.615Z,100329.75
2022-11-09T06:42:16.141Z,100318.97
2022-11-09T06:44:45.368Z,100323.91
2022-11-09T06:47:14.967Z,100322.47
2022-11-09T06:49:45.304Z,100331.47
2022-11-09T06:52:14.877Z,100319.75
2022-11-09T06:54:53.957Z,100324.59
2022-11-09T06:57:24.540Z,100331.13
2022-11-09T07:00:00.685Z,100333.66
2022-11-09T07:02:42.044Z,100328.06
2022-11-09T07:05:50.662Z,100324.81
2022-11-09T07:08:46.819Z,100328.25
2022-11-09T07:11:17.876Z,100314.66
2022-11-09T07:17:08.059Z,100332.03
2022-11-09T07:19:39.857Z,100333.97
2022-11-09T07:22:12.804Z,100336.09
2022-11-09T07:24:43.824Z,100332.84
2022-11-09T07:27:16.943Z,100334.16
2022-11-09T07:29:49.798Z,100333.28
2022-11-09T07:32:19.974Z,100326.53
2022-11-09T07:34:48.771Z,100339.03
2022-11-09T07:37:27.332Z,100335.37
2022-11-09T07:40:20.217Z,100342.69
2022-11-09T07:43:27.439Z,100331.97
2022-11-09T07:45:58.943Z,100333.62
2022-11-09T07:48:29.925Z,100341.81
2022-11-09T07:51:02.771Z,100333.81
2022-11-09T07:53:37.347Z,100344.94
2022-11-09T07:56:07.066Z,100329.19
2022-11-09T07:58:37.833Z,100330.69
2022-11-09T08:01:10.279Z,100331.63
2022-11-09T08:03:41.499Z,100337.22
2022-11-09T08:06:15.634Z,100340.69
2022-11-09T08:08:46.999Z,100331.91
2022-11-09T08:11:15.862Z,100331.94
2022-11-09T08:13:44.823Z,100322.72
2022-11-09T08:16:15.096Z,100323.62
2022-11-09T08:19:10.567Z,100324.81
2022-11-09T08:21:48.956Z,100314.47
2022-11-09T08:24:19.222Z,100318.00
2022-11-09T08:26:50.744Z,100320.44
2022-11-09T08:29:26.296Z,100327.78
2022-11-09T08:32:15.768Z,100324.19
2022-11-09T08:34:50.722Z,100324.69
2022-11-09T08:37:35.545Z,100319.09
2022-11-09T08:40:33.953Z,100315.41
2022-11-09T08:43:17.196Z,100318.50
2022-11-09T08:45:59.307Z,100316.03
2022-11-09T08:48:45.052Z,100313.38
2022-11-09T08:51:36.191Z,100319.94
2022-11-09T08:54:18.013Z,100318.22
2022-11-09T08:57:11.686Z,100318.09
2022-11-09T08:59:51.862Z,100309.56
2022-11-09T09:02:47.472Z,100315.19
2022-11-09T09:05:30.031Z,100322.81
2022-11-09T09:08:26.095Z,100323.56
2022-11-09T09:11:06.488Z,100318.44
2022-11-09T09:13:49.013Z,100313.16
2022-11-09T09:16:31.916Z,100318.44
2022-11-09T09:19:14.967Z,100320.97
2022-11-09T09:21:58.916Z,100316.94
2022-11-09T09:24:53.846Z,100319.72
2022-11-09T09:27:38.908Z,100309.91
2022-11-09T09:30:21.497Z,100308.00
2022-11-09T09:33:03.977Z,100312.41
2022-11-09T09:35:51.532Z,100309.47
2022-11-09T09:38:49.485Z,100315.00
2022-11-09T09:41:35.127Z,100307.00
2022-11-09T09:44:45.603Z,100311.16
2022-11-09T09:47:53.005Z,100307.75
2022-11-09T09:50:51.875Z,100311.09
2022-11-09T09:53:44.722Z,100302.47
2022-11-09T09:56:31.488Z,100301.00
2022-11-09T09:59:29.815Z,100301.84
2022-11-09T10:02:31.041Z,100287.91
2022-11-09T10:05:15.902Z,100290.03
2022-11-09T10:08:09.877Z,100295.25
2022-11-09T10:11:35.256Z,100285.09
2022-11-09T10:14:25.602Z,100280.00
2022-11-09T10:17:15.840Z,100278.88
2022-11-09T10:20:09.082Z,100277.06
2022-11-09T10:23:25.918Z,100275.53
2022-11-09T10:26:21.832Z,100280.47
2022-11-09T10:29:32.856Z,100277.78
2022-11-09T10:32:25.728Z,100279.72
2022-11-09T10:35:14.329Z,100275.25
2022-11-09T10:38:14.943Z,100283.59
2022-11-09T10:41:50.135Z,100278.88
2022-11-09T10:44:49.039Z,100264.28
2022-11-09T10:47:47.484Z,100261.53
2022-11-09T10:50:39.208Z,100259.66
2022-11-09T10:53:37.888Z,100260.97
2022-11-09T11:01:16.140Z,100259.72
2022-11-09T11:03:58.595Z,100244.88
2022-11-09T11:07:20.792Z,100253.00
2022-11-09T11:10:17.276Z,100241.34
2022-11-09T11:12:59.886Z,100238.06
2022-11-09T11:15:48.970Z,100236.53
2022-11-09T11:18:47.864Z,100238.69
2022-11-09T11:21:47.954Z,100230.66
2022-11-09T11:25:06.547Z,100230.31
2022-11-09T11:27:55.070Z,100235.75
2022-11-09T11:30:56.057Z,100240.50
2022-11-09T11:33:39.070Z,100237.84
2022-11-09T11:36:46.295Z,100225.97
2022-11-09T11:39:54.474Z,100233.78
2022-11-09T11:43:00.226Z,100232.88
2022-11-09T11:46:21.051Z,100238.91
2022-11-09T11:49:26.345Z,100238.13
2022-11-09T11:52:16.952Z,100238.34
2022-11-09T11:55:26.670Z,100240.44
2022-11-09T11:58:29.045Z,100232.56
2022-11-09T12:02:16.091Z,100227.28
2022-11-09T12:05:19.148Z,100231.97
2022-11-09T12:08:50.053Z,100224.22
2022-11-09T12:11:59.820Z,100215.69
2022-11-09T12:15:16.817Z,100230.19
2022-11-09T12:18:52.480Z,100216.47
2022-11-09T12:22:04.097Z,100221.84
2022-11-09T12:24:59.310Z,100206.91
2022-11-09T12:28:14.073Z,100204.53
2022-11-09T12:31:19.758Z,100215.91
2022-11-09T12:34:28.181Z,100218.59
2022-11-09T12:37:20.655Z,100215.38
2022-11-09T12:40:32.780Z,100211.03
2022-11-09T12:43:23.273Z,100214.63
2022-11-09T12:46:11.519Z,100212.72
2022-11-09T12:49:05.080Z,100208.53
2022-11-09T12:51:55.503Z,100214.44
2022-11-09T12:54:46.453Z,100205.88
2022-11-09T12:57:38.796Z,100205.47
2022-11-09T13:00:34.806Z,100204.38
2022-11-09T13:03:28.766Z,100203.88
2022-11-09T13:06:15.289Z,100204.03
2022-11-09T13:09:14.766Z,100200.03
2022-11-09T13:16:06.848Z,100198.28
2022-11-09T13:18:58.081Z,100194.66
2022-11-09T13:21:38.132Z,100187.56
2022-11-09T13:24:35.953Z,100192.53
2022-11-09T13:27:48.772Z,100190.91
2022-11-09T13:30:41.720Z,100187.81
2022-11-09T13:33:35.782Z,100192.97
2022-11-09T13:36:22.760Z,100189.41
2022-11-09T13:39:34.827Z,100180.69
2022-11-09T13:42:35.394Z,100189.19
2022-11-09T13:45:33.414Z,100184.44
2022-11-09T13:48:36.886Z,100190.69
2022-11-09T13:51:43.071Z,100193.34
2022-11-09T13:54:35.844Z,100191.50
2022-11-09T13:57:45.367Z,100186.78
2022-11-09T14:00:34.150Z,100189.13
2022-11-09T14:03:33.885Z,100184.50
2022-11-09T14:06:31.202Z,100183.31
2022-11-09T14:09:19.913Z,100181.88
2022-11-09T14:12:17.898Z,100180.25
2022-11-09T14:15:45.773Z,100176.31
2022-11-09T14:19:14.657Z,100180.38
2022-11-09T14:22:15.648Z,100180.66
2022-11-09T14:25:19.973Z,100173.75
2022-11-09T14:28:31.259Z,100172.94
2022-11-09T14:31:24.005Z,100181.69
2022-11-09T14:34:15.785Z,100182.53
2022-11-09T14:37:12.386Z,100181.56
2022-11-09T14:40:01.616Z,100183.44
2022-11-09T14:43:36.062Z,100182.31
2022-11-09T14:46:28.786Z,100172.72
2022-11-09T14:49:17.056Z,100184.78
2022-11-09T14:52:06.099Z,100186.78
2022-11-09T14:55:18.392Z,100185.84
2022-11-09T14:58:11.846Z,100189.53
2022-11-09T15:01:28.952Z,100181.91
2022-11-09T15:04:27.220Z,100173.09
2022-11-09T15:07:35.991Z,100184.84
2022-11-09T15:10:29.722Z,100183.19
2022-11-09T15:13:18.900Z,100190.50
2022-11-09T15:16:28.666Z,100187.13
2022-11-09T15:19:39.297Z,100186.44
2022-11-09T15:23:04.413Z,100191.78
2022-11-09T15:25:58.081Z,100190.84
2022-11-09T15:28:45.835Z,100180.25
2022-11-09T15:32:02.909Z,100182.41
2022-11-09T15:34:58.691Z,100187.13
2022-11-09T15:37:51.661Z,100175.22
2022-11-09T15:41:01.884Z,100183.31
2022-11-09T15:43:46.105Z,100188.34
2022-11-09T15:46:47.795Z,100181.69
2022-11-09T15:49:42.005Z,100178.19
2022-11-09T15:52:25.324Z,100183.19
2022-11-09T15:55:25.760Z,100182.03
2022-11-09T15:58:14.390Z,100186.91
2022-11-09T16:01:13.827Z,100189.34
2022-11-09T16:04:18.763Z,100187.81
2022-11-09T16:07:21.872Z,100182.97
2022-11-09T16:10:24.794Z,100192.44
2022-11-09T16:13:23.834Z,100191.34
2022-11-09T16:16:25.746Z,100193.50
2022-11-09T16:22:14.852Z,100197.06
2022-11-09T16:28:04.874Z,100195.63
2022-11-09T16:30:51.430Z,100195.63
2022-11-09T16:33:38.649Z,100197.56
2022-11-09T16:36:26.365Z,100195.78
2022-11-09T16:39:24.122Z,100200.94
2022-11-09T16:42:17.873Z,100200.31
2022-11-09T16:45:14.054Z,100196.78
2022-11-09T16:48:11.781Z,100201.50
2022-11-09T16:51:08.778Z,100196.09
2022-11-09T16:54:03.874Z,100191.97
2022-11-09T16:56:58.002Z,100195.56
2022-11-09T16:59:51.232Z,100202.53
2022-11-09T17:08:39.832Z,100195.94
2022-11-09T17:11:30.369Z,100197.78
2022-11-09T17:14:19.745Z,100202.94
2022-11-09T17:17:11.052Z,100199.28
2022-11-09T17:19:47.075Z,100199.09
2022-11-09T17:22:35.255Z,100199.94
2022-11-09T17:25:33.797Z,100197.09
2022-11-09T17:28:26.084Z,100210.34
2022-11-09T17:31:18.775Z,100201.38
2022-11-09T17:34:01.835Z,100201.94
2022-11-09T17:37:04.809Z,100203.84
2022-11-09T17:39:45.777Z,100192.78
2022-11-09T17:42:28.687Z,100202.44
2022-11-09T17:45:31.942Z,100199.38
2022-11-09T17:48:23.166Z,100196.34
2022-11-09T17:51:29.713Z,100200.53
2022-11-09T17:54:19.841Z,100194.94
2022-11-09T17:57:13.315Z,100195.78
2022-11-09T18:00:03.960Z,100192.50
2022-11-09T18:03:02.107Z,100191.41
2022-11-09T18:09:19.284Z,100193.78
2022-11-09T18:12:07.867Z,100188.59
2022-11-09T18:14:59.777Z,100182.25
2022-11-09T18:17:49.956Z,100191.06
2022-11-09T18:20:42.933Z,100188.06
2022-11-09T18:29:30.186Z,100191.34
2022-11-09T18:35:17.878Z,100192.41
2022-11-09T18:38:13.105Z,100188.69
2022-11-09T18:41:01.919Z,100197.03
2022-11-09T18:43:52.912Z,100189.13
2022-11-09T18:46:48.790Z,100186.25
2022-11-09T18:49:29.973Z,100189.53
2022-11-09T18:52:20.324Z,100191.47
2022-11-09T18:55:07.813Z,100182.78
2022-11-09T18:57:56.114Z,100192.59
2022-11-09T19:04:02.005Z,100192.00
2022-11-09T19:06:52.363Z,100184.50
2022-11-09T19:09:42.940Z,100191.44
2022-11-09T19:12:46.986Z,100188.09
2022-11-09T19:15:38.823Z,100181.25
2022-11-09T19:18:29.121Z,100190.53
2022-11-09T19:21:40.871Z,100185.13
2022-11-09T19:24:34.637Z,100181.41
2022-11-09T19:33:19.032Z,100191.44
2022-11-09T19:36:15.501Z,100181.00
2022-11-09T19:39:03.101Z,100187.16
2022-11-09T19:41:50.898Z,100174.38
2022-11-09T19:44:38.779Z,100179.91
2022-11-09T19:47:28.850Z,100185.63
2022-11-09T19:50:16.757Z,100181.72
2022-11-09T19:53:11.793Z,100187.03
2022-11-09T19:56:00.411Z,100183.19
2022-11-09T19:58:56.758Z,100186.41
2022-11-09T20:01:46.966Z,100189.59
2022-11-09T20:04:43.698Z,100192.16
2022-11-09T20:07:33.768Z,100187.41
2022-11-09T20:10:21.576Z,100194.03
2022-11-09T20:13:15.817Z,100186.84
2022-11-09T20:16:11.023Z,100191.88
2022-11-09T20:21:44.769Z,100187.50
2022-11-09T20:24:31.856Z,100182.25
2022-11-09T20:27:18.931Z,100177.72
2022-11-09T20:29:57.768Z,100176.09
2022-11-09T20:32:56.767Z,100185.00
2022-11-09T20:35:53.790Z,100171.16
2022-11-09T20:38:45.925Z,100172.59
2022-11-09T20:41:33.815Z,100180.22
2022-11-09T20:44:21.396Z,100174.38
2022-11-09T20:47:14.767Z,100177.72
2022-11-09T20:50:01.129Z,100175.84
2022-11-09T20:52:49.301Z,100176.94
2022-11-09T20:55:41.865Z,100183.34
2022-11-09T20:58:29.367Z,100178.41
2022-11-09T21:01:24.936Z,100177.50
2022-11-09T21:04:13.548Z,100179.50
2022-11-09T21:06:59.739Z,100184.34
2022-11-09T21:09:40.847Z,100182.16
2022-11-09T21:12:29.768Z,100170.09
2022-11-09T21:15:16.906Z,100184.69
2022-11-09T21:18:04.993Z,100182.97
2022-11-09T21:21:05.154Z,100180.00
2022-11-09T21:24:12.023Z,100176.41
2022-11-09T21:27:17.837Z,100171.53
2022-11-09T21:30:09.104Z,100180.69
2022-11-09T21:32:56.917Z,100177.34
2022-11-09T21:35:44.134Z,100181.72
2022-11-09T21:38:33.721Z,100178.88
2022-11-09T21:41:40.994Z,100183.44
2022-11-09T21:44:30.950Z,100184.53
2022-11-09T21:47:18.383Z,100178.12
2022-11-09T21:50:11.170Z,100181.84
2022-11-09T21:53:00.777Z,100183.34
2022-11-09T21:55:49.060Z,100186.19
2022-11-09T21:58:35.451Z,100174.38
2022-11-09T22:01:22.898Z,100172.63
2022-11-09T22:04:10.073Z,100176.09
2022-11-09T22:06:57.097Z,100175.38
2022-11-09T22:10:08.851Z,100173.69
2022-11-09T22:13:12.708Z,100157.38
2022-11-09T22:16:06.726Z,100158.13
2022-11-09T22:19:12.450Z,100160.03
2022-11-09T22:22:00.726Z,100172.03
2022-11-09T22:24:47.185Z,100175.16
2022-11-09T22:27:40.275Z,100169.37
2022-11-09T22:30:27.895Z,100174.06
2022-11-09T22:33:34.473Z,100167.50
2022-11-09T22:36:23.727Z,100175.09
2022-11-09T22:39:16.442Z,100165.31
2022-11-09T22:42:04.892Z,100165.87
2022-11-09T22:44:51.780Z,100159.22
2022-11-09T22:47:41.008Z,100154.06
2022-11-09T22:50:28.212Z,100157.44
2022-11-09T22:53:14.605Z,100158.72
2022-11-09T22:56:25.210Z,100158.87
2022-11-09T22:59:11.198Z,100156.19
2022-11-09T23:01:53.970Z,100163.22
2022-11-09T23:04:35.924Z,100156.09
2022-11-09T23:07:19.322Z,100169.06
2022-11-09T23:10:09.721Z,100165.31
2022-11-09T23:12:55.281Z,100161.59
2022-11-09T23:15:43.727Z,100169.56
2022-11-09T23:22:36.528Z,100162.53
2022-11-09T23:25:38.495Z,100160.91
2022-11-09T23:28:20.864Z,100165.22
2022-11-09T23:31:13.930Z,100162.94
2022-11-09T23:34:23.896Z,100159.84
2022-11-09T23:41:39.071Z,100160.72
2022-11-09T23:44:38.008Z,100151.00
2022-11-09T23:47:36.945Z,100148.44
2022-11-09T23:50:19.134Z,100156.84
2022-11-09T23:53:17.776Z,100153.19
2022-11-09T23:56:05.098Z,100159.34
2022-11-09T23:59:03.769Z,100152.37
